Time;durP1;ratioP1;P1;durP2;ratioP2;P2;SDS_P1;SDS_P2;PMS_P1;PMS_P2;Temp;Humidity;BMP_temperature;BMP_pressure;BME280_temperature;BME280_humidity;BME280_pressure;Samples;Min_cycle;Max_cycle;Signal;HPM_P1;HPM_P2
2022/06/07 00:02:35;;;;;;;1.10;0.55;;;;;;;;;;8356213;28;20032;-59
2022/06/07 00:06:35;;;;;;;4.72;0.80;;;;;;;;;;8356120;28;20025;-59
2022/06/07 00:10:36;;;;;;;0.60;0.60;;;;;;;;;;8358513;28;20500;-60
2022/06/07 00:14:36;;;;;;;0.70;0.65;;;;;;;;;;8355962;28;20040;-59
2022/06/07 00:18:36;;;;;;;0.85;0.70;;;;;;;;;;8358123;28;20170;-59
2022/06/07 00:22:37;;;;;;;1.83;0.70;;;;;;;;;;8354047;28;20028;-59
2022/06/07 00:26:38;;;;;;;0.95;0.60;;;;;;;;;;8354404;28;20056;-60
2022/06/07 00:30:38;;;;;;;0.68;0.60;;;;;;;;;;8356339;28;20053;-60
2022/06/07 00:34:38;;;;;;;1.23;0.63;;;;;;;;;;8358201;28;20743;-59
2022/06/07 00:38:41;;;;;;;2.20;0.63;;;;;;;;;;8355727;28;20024;-60
2022/06/07 00:42:42;;;;;;;2.00;0.70;;;;;;;;;;8356657;28;20031;-60
2022/06/07 00:46:44;;;;;;;2.13;0.80;;;;;;;;;;8356347;28;20037;-60
2022/06/07 00:50:51;;;;;;;1.15;0.75;;;;;;;;;;8356129;28;20021;-60
2022/06/07 00:54:51;;;;;;;3.72;0.75;;;;;;;;;;8357320;28;20477;-60
2022/06/07 00:58:51;;;;;;;1.40;0.68;;;;;;;;;;8356486;28;20502;-60
2022/06/07 01:02:52;;;;;;;1.65;0.70;;;;;;;;;;8356472;28;20028;-60
2022/06/07 01:11:11;;;;;;;0.93;0.60;;;;;;;;;;8350818;28;20043;-60
2022/06/07 01:15:12;;;;;;;1.95;0.60;;;;;;;;;;8352140;28;20028;-60
2022/06/07 01:19:12;;;;;;;3.05;0.60;;;;;;;;;;8350808;28;20028;-59
2022/06/07 01:23:12;;;;;;;1.85;0.90;;;;;;;;;;8354082;28;20032;-59
2022/06/07 01:27:13;;;;;;;1.30;0.70;;;;;;;;;;8356237;28;20045;-60
2022/06/07 01:31:13;;;;;;;1.88;0.68;;;;;;;;;;8353388;28;20627;-61
2022/06/07 01:35:13;;;;;;;1.27;0.73;;;;;;;;;;8353708;28;20024;-60
2022/06/07 01:43:33;;;;;;;2.90;0.80;;;;;;;;;;8354403;28;20067;-60
2022/06/07 01:47:34;;;;;;;1.17;0.70;;;;;;;;;;8355587;28;20148;-59
2022/06/07 01:51:34;;;;;;;1.95;0.63;;;;;;;;;;8355934;28;20067;-60
2022/06/07 01:55:34;;;;;;;5.75;0.80;;;;;;;;;;8352825;28;20130;-61
2022/06/07 01:59:35;;;;;;;5.15;0.90;;;;;;;;;;8355288;28;20028;-59
2022/06/07 02:03:35;;;;;;;0.65;0.63;;;;;;;;;;8353066;28;20044;-59
2022/06/07 02:07:35;;;;;;;0.70;0.60;;;;;;;;;;8354307;28;20024;-60
2022/06/07 02:11:36;;;;;;;1.47;0.70;;;;;;;;;;8353282;28;20257;-60
2022/06/07 02:15:37;;;;;;;1.55;0.68;;;;;;;;;;8353417;28;20270;-60
2022/06/07 02:19:37;;;;;;;1.48;0.70;;;;;;;;;;8352464;28;20024;-61
2022/06/07 02:23:37;;;;;;;1.02;0.77;;;;;;;;;;8355344;28;20091;-60
2022/06/07 02:27:38;;;;;;;0.80;0.70;;;;;;;;;;8354813;28;20039;-61
2022/06/07 02:31:42;;;;;;;1.45;0.77;;;;;;;;;;8356019;28;20035;-60
2022/06/07 02:35:43;;;;;;;1.05;0.70;;;;;;;;;;8353403;28;20046;-60
2022/06/07 02:39:43;;;;;;;1.38;0.82;;;;;;;;;;8354407;28;20029;-60
2022/06/07 02:43:44;;;;;;;1.55;0.80;;;;;;;;;;8353510;28;20124;-60
2022/06/07 02:47:44;;;;;;;0.82;0.63;;;;;;;;;;8356425;28;20052;-60
2022/06/07 02:51:44;;;;;;;2.15;0.73;;;;;;;;;;8361584;28;20016;-60
2022/06/07 02:55:44;;;;;;;2.22;0.70;;;;;;;;;;8361732;28;20021;-59
2022/06/07 02:59:45;;;;;;;2.70;0.93;;;;;;;;;;8357567;28;20066;-60
2022/06/07 03:03:45;;;;;;;2.22;0.80;;;;;;;;;;8360096;28;20040;-59
2022/06/07 03:07:45;;;;;;;1.92;0.95;;;;;;;;;;8360505;28;20036;-60
2022/06/07 03:11:45;;;;;;;2.03;1.13;;;;;;;;;;8357209;28;20070;-60
2022/06/07 03:15:47;;;;;;;1.60;1.00;;;;;;;;;;8357376;28;20029;-61
2022/06/07 03:19:47;;;;;;;1.30;0.90;;;;;;;;;;8358792;28;20051;-60
2022/06/07 03:23:47;;;;;;;1.20;1.00;;;;;;;;;;8357690;28;20020;-61
2022/06/07 03:27:48;;;;;;;3.15;0.90;;;;;;;;;;8359156;28;20021;-61
2022/06/07 03:31:48;;;;;;;1.57;0.90;;;;;;;;;;8356709;28;20041;-66
2022/06/07 03:35:48;;;;;;;2.63;1.00;;;;;;;;;;8359451;28;20262;-61
2022/06/07 03:39:48;;;;;;;1.90;1.00;;;;;;;;;;8358610;28;20056;-61
2022/06/07 03:43:49;;;;;;;2.53;0.90;;;;;;;;;;8355850;28;20078;-61
2022/06/07 03:47:50;;;;;;;3.85;1.00;;;;;;;;;;8359347;28;20048;-65
2022/06/07 03:51:50;;;;;;;2.15;1.10;;;;;;;;;;8358780;28;20100;-61
2022/06/07 03:55:52;;;;;;;1.73;1.00;;;;;;;;;;8359111;28;20020;-61
2022/06/07 03:59:52;;;;;;;3.38;0.80;;;;;;;;;;8355643;28;20023;-60
2022/06/07 04:03:54;;;;;;;1.92;0.80;;;;;;;;;;8357706;28;20063;-60
2022/06/07 04:08:12;;;;;;;1.38;0.90;;;;;;;;;;8356642;28;20174;-61
2022/06/07 04:12:14;;;;;;;0.98;0.90;;;;;;;;;;8358627;28;20024;-60
2022/06/07 04:16:16;;;;;;;1.70;1.15;;;;;;;;;;8355478;28;20032;-60
2022/06/07 04:20:16;;;;;;;2.10;0.90;;;;;;;;;;8355617;28;20296;-61
2022/06/07 04:24:16;;;;;;;2.13;1.10;;;;;;;;;;8356360;28;20092;-61
2022/06/07 04:28:17;;;;;;;2.38;1.20;;;;;;;;;;8357240;28;20025;-61
2022/06/07 04:32:17;;;;;;;1.90;1.05;;;;;;;;;;8356448;28;20111;-62
2022/06/07 04:36:19;;;;;;;2.33;1.17;;;;;;;;;;8359121;28;21013;-62
2022/06/07 04:40:19;;;;;;;3.08;1.10;;;;;;;;;;8355390;28;20496;-62
2022/06/07 04:44:19;;;;;;;1.35;0.90;;;;;;;;;;8353400;28;20052;-61
2022/06/07 04:48:20;;;;;;;2.90;1.13;;;;;;;;;;8354271;28;20036;-61
2022/06/07 04:52:20;;;;;;;2.13;1.10;;;;;;;;;;8354083;28;20035;-61
2022/06/07 04:56:22;;;;;;;1.00;0.93;;;;;;;;;;8354885;28;20028;-61
2022/06/07 05:00:22;;;;;;;2.78;0.95;;;;;;;;;;8350172;28;20091;-62
2022/06/07 05:04:23;;;;;;;4.07;1.10;;;;;;;;;;8355200;28;20016;-61
2022/06/07 05:08:23;;;;;;;2.97;0.87;;;;;;;;;;8357370;28;20352;-61
2022/06/07 05:12:23;;;;;;;5.60;1.05;;;;;;;;;;8356670;28;20279;-61
2022/06/07 05:16:24;;;;;;;3.97;1.08;;;;;;;;;;8353036;28;20117;-61
2022/06/07 05:20:24;;;;;;;2.20;0.90;;;;;;;;;;8351008;28;20833;-61
2022/06/07 05:24:24;;;;;;;1.85;0.90;;;;;;;;;;8353060;28;20035;-61
2022/06/07 05:28:25;;;;;;;3.08;0.90;;;;;;;;;;8354914;28;20052;-62
2022/06/07 05:32:26;;;;;;;2.72;1.13;;;;;;;;;;8353707;28;20037;-61
2022/06/07 05:36:26;;;;;;;2.50;0.85;;;;;;;;;;8355373;28;20127;-60
2022/06/07 05:40:26;;;;;;;1.30;0.77;;;;;;;;;;8355667;28;20541;-61
2022/06/07 05:44:27;;;;;;;2.33;0.90;;;;;;;;;;8355791;28;20016;-61
2022/06/07 05:48:27;;;;;;;3.83;0.77;;;;;;;;;;8353915;28;20049;-61
2022/06/07 05:52:27;;;;;;;2.38;1.00;;;;;;;;;;8353915;28;20042;-61
2022/06/07 05:56:28;;;;;;;3.57;1.10;;;;;;;;;;8353357;28;20028;-61
2022/06/07 06:00:30;;;;;;;2.03;1.00;;;;;;;;;;8353314;28;20039;-61
2022/06/07 06:04:30;;;;;;;1.05;0.90;;;;;;;;;;8355882;28;20020;-61
2022/06/07 06:12:49;;;;;;;2.50;1.02;;;;;;;;;;8354733;28;20047;-61
2022/06/07 06:16:50;;;;;;;4.57;1.13;;;;;;;;;;8352066;28;20033;-61
2022/06/07 06:20:52;;;;;;;4.18;0.95;;;;;;;;;;8356004;28;20131;-61
2022/06/07 06:24:53;;;;;;;1.58;0.90;;;;;;;;;;8360103;28;20032;-61
2022/06/07 06:28:53;;;;;;;3.60;0.90;;;;;;;;;;8358699;28;20051;-60
2022/06/07 06:32:54;;;;;;;4.20;0.88;;;;;;;;;;8361154;28;20343;-61
2022/06/07 06:36:55;;;;;;;7.63;0.95;;;;;;;;;;8362153;28;20021;-61
2022/06/07 06:40:55;;;;;;;2.60;0.90;;;;;;;;;;8359967;28;20543;-61
2022/06/07 06:44:55;;;;;;;1.00;0.75;;;;;;;;;;8360601;28;20147;-61
2022/06/07 06:48:56;;;;;;;2.47;0.88;;;;;;;;;;8358383;28;20041;-61
2022/06/07 06:52:57;;;;;;;2.05;0.75;;;;;;;;;;8360900;28;20028;-61
2022/06/07 06:56:57;;;;;;;3.28;0.70;;;;;;;;;;8362040;28;20542;-61
2022/06/07 07:01:00;;;;;;;5.30;0.90;;;;;;;;;;8358621;28;20033;-61
2022/06/07 07:05:01;;;;;;;1.65;0.77;;;;;;;;;;8358948;28;20060;-61
2022/06/07 07:09:02;;;;;;;1.58;0.73;;;;;;;;;;8358980;28;20025;-61
2022/06/07 07:13:02;;;;;;;2.47;0.80;;;;;;;;;;8358443;28;20094;-61
2022/06/07 07:17:03;;;;;;;2.35;0.80;;;;;;;;;;8357291;28;20024;-61
2022/06/07 07:21:04;;;;;;;1.23;0.80;;;;;;;;;;8358283;28;20108;-61
2022/06/07 07:25:06;;;;;;;1.52;0.75;;;;;;;;;;8356537;28;20278;-61
2022/06/07 07:29:06;;;;;;;1.45;0.85;;;;;;;;;;8358695;28;20029;-61
2022/06/07 07:33:06;;;;;;;2.10;0.90;;;;;;;;;;8358658;28;20040;-62
2022/06/07 07:37:06;;;;;;;1.88;0.90;;;;;;;;;;8359891;28;20031;-61
2022/06/07 07:41:16;;;;;;;1.17;0.90;;;;;;;;;;8356410;28;20143;-61
2022/06/07 07:45:17;;;;;;;1.10;0.80;;;;;;;;;;8355832;28;20032;-61
2022/06/07 07:49:19;;;;;;;3.38;0.82;;;;;;;;;;8358476;28;20024;-62
2022/06/07 07:53:20;;;;;;;1.88;0.80;;;;;;;;;;8359295;28;20021;-61
2022/06/07 07:57:20;;;;;;;1.35;0.90;;;;;;;;;;8356626;28;20028;-61
2022/06/07 08:01:24;;;;;;;2.30;0.70;;;;;;;;;;8356019;28;20044;-61
2022/06/07 08:05:24;;;;;;;1.55;0.90;;;;;;;;;;8358978;28;20052;-61
2022/06/07 08:09:26;;;;;;;3.73;0.80;;;;;;;;;;8356253;28;20494;-61
2022/06/07 08:13:27;;;;;;;1.67;0.80;;;;;;;;;;8357276;28;20064;-60
2022/06/07 08:17:27;;;;;;;1.42;0.70;;;;;;;;;;8354492;28;20959;-61
2022/06/07 08:21:27;;;;;;;0.93;0.80;;;;;;;;;;8355021;28;20667;-61
2022/06/07 08:25:28;;;;;;;1.23;0.83;;;;;;;;;;8356773;28;20404;-61
2022/06/07 08:29:28;;;;;;;1.65;0.90;;;;;;;;;;8357654;28;20017;-61
2022/06/07 08:37:47;;;;;;;2.13;0.70;;;;;;;;;;8357206;28;20028;-61
2022/06/07 08:41:50;;;;;;;3.13;0.70;;;;;;;;;;8355456;28;20028;-61
2022/06/07 08:45:52;;;;;;;1.48;0.70;;;;;;;;;;8355155;28;20679;-61
2022/06/07 08:49:54;;;;;;;1.30;0.70;;;;;;;;;;8356850;28;20835;-61
2022/06/07 08:53:56;;;;;;;1.47;0.90;;;;;;;;;;8356881;28;20115;-61
2022/06/07 08:57:57;;;;;;;2.15;0.85;;;;;;;;;;8357700;28;20035;-61
2022/06/07 09:01:57;;;;;;;1.87;0.80;;;;;;;;;;8356187;28;20033;-61
2022/06/07 09:06:00;;;;;;;3.28;0.73;;;;;;;;;;8355743;28;20021;-61
2022/06/07 09:14:31;;;;;;;2.55;0.70;;;;;;;;;;8353345;28;20036;-61
2022/06/07 09:18:33;;;;;;;2.60;0.70;;;;;;;;;;8354015;28;20036;-61
2022/06/07 09:22:38;;;;;;;1.48;0.80;;;;;;;;;;8353397;28;20582;-61
2022/06/07 09:26:40;;;;;;;2.25;0.68;;;;;;;;;;8354590;28;20541;-61
2022/06/07 09:30:43;;;;;;;2.67;0.80;;;;;;;;;;8353508;28;20086;-60
2022/06/07 09:34:43;;;;;;;;;;;;;;;;;;8354135;28;20453;-61
2022/06/07 09:38:47;;;;;;;8.60;1.10;;;;;;;;;;8356225;28;19912;-60
2022/06/07 09:42:56;;;;;;;4.43;0.98;;;;;;;;;;8356627;28;20043;-61
2022/06/07 09:47:04;;;;;;;3.33;0.90;;;;;;;;;;8353157;28;20516;-60
2022/06/07 09:51:06;;;;;;;3.10;1.00;;;;;;;;;;8354745;28;20063;-60
2022/06/07 09:55:07;;;;;;;;;;;;;;;;;;8352392;28;20694;-60
2022/06/07 09:59:13;;;;;;;3.10;0.85;;;;;;;;;;8354024;28;19919;-60
2022/06/07 10:03:16;;;;;;;1.55;0.85;;;;;;;;;;8354237;28;20028;-60
2022/06/07 10:07:22;;;;;;;2.38;0.90;;;;;;;;;;8353181;28;20081;-61
2022/06/07 10:11:39;;;;;;;2.25;0.85;;;;;;;;;;8353974;28;20074;-60
2022/06/07 10:15:52;;;;;;;2.35;0.85;;;;;;;;;;8368669;28;20036;-60
2022/06/07 10:20:22;;;;;;;1.95;0.95;;;;;;;;;;8351946;28;21028;-61
2022/06/07 10:24:31;;;;;;;3.10;0.90;;;;;;;;;;8344792;28;20035;-61
2022/06/07 10:28:32;;;;;;;1.00;0.80;;;;;;;;;;8354221;28;20522;-61
2022/06/07 10:33:01;;;;;;;2.70;0.70;;;;;;;;;;8351450;28;20608;-61
2022/06/07 10:37:04;;;;;;;1.40;0.80;;;;;;;;;;8279028;28;20039;-61
2022/06/07 10:41:11;;;;;;;0.98;0.80;;;;;;;;;;8351767;28;20020;-61
2022/06/07 10:45:16;;;;;;;1.02;0.70;;;;;;;;;;8349151;28;21200;-61
2022/06/07 10:49:39;;;;;;;0.80;0.80;;;;;;;;;;8350060;28;20074;-60
2022/06/07 10:53:42;;;;;;;1.60;0.70;;;;;;;;;;8342709;28;20381;-60
2022/06/07 10:57:54;;;;;;;1.33;0.80;;;;;;;;;;8351544;28;21002;-60
2022/06/07 11:02:00;;;;;;;1.48;0.70;;;;;;;;;;8350856;28;20043;-60
2022/06/07 11:10:26;;;;;;;1.33;0.90;;;;;;;;;;8359472;28;20048;-61
2022/06/07 11:14:35;;;;;;;2.13;0.70;;;;;;;;;;8357089;28;20421;-61
2022/06/07 11:18:36;;;;;;;2.45;0.80;;;;;;;;;;8350832;28;20032;-61
2022/06/07 11:22:37;;;;;;;1.45;0.70;;;;;;;;;;8354898;28;20468;-61
2022/06/07 11:26:58;;;;;;;2.13;0.88;;;;;;;;;;8357457;28;20024;-61
2022/06/07 11:31:17;;;;;;;0.98;0.60;;;;;;;;;;8356525;28;20044;-61
2022/06/07 11:35:35;;;;;;;1.25;0.70;;;;;;;;;;8358002;28;20109;-62
2022/06/07 11:39:35;;;;;;;0.93;0.80;;;;;;;;;;8358354;28;20805;-61
2022/06/07 11:43:56;;;;;;;1.10;0.80;;;;;;;;;;8359035;28;20020;-60
2022/06/07 11:48:08;;;;;;;1.65;0.80;;;;;;;;;;8356554;28;20489;-60
2022/06/07 11:52:08;;;;;;;1.20;0.80;;;;;;;;;;8356996;28;20035;-61
2022/06/07 11:56:20;;;;;;;3.13;0.80;;;;;;;;;;8356896;28;20020;-61
2022/06/07 12:00:24;;;;;;;2.40;0.82;;;;;;;;;;8353809;28;20404;-61
2022/06/07 12:04:45;;;;;;;1.88;0.80;;;;;;;;;;8357416;28;20016;-61
2022/06/07 12:08:52;;;;;;;4.60;0.80;;;;;;;;;;8355352;28;20119;-60
2022/06/07 12:12:56;;;;;;;1.23;0.77;;;;;;;;;;8356941;28;20037;-61
2022/06/07 12:17:00;;;;;;;1.45;0.70;;;;;;;;;;8356270;28;20977;-61
2022/06/07 12:21:08;;;;;;;1.65;0.70;;;;;;;;;;8355427;28;20020;-61
2022/06/07 12:25:15;;;;;;;2.15;0.70;;;;;;;;;;8353811;28;20137;-62
2022/06/07 12:29:24;;;;;;;4.63;0.80;;;;;;;;;;8357590;28;20020;-61
2022/06/07 12:33:28;;;;;;;2.22;0.70;;;;;;;;;;8350754;28;20032;-61
2022/06/07 12:37:29;;;;;;;1.13;0.80;;;;;;;;;;8356744;28;20191;-61
2022/06/07 12:41:32;;;;;;;0.73;0.73;;;;;;;;;;8355688;28;20085;-61
2022/06/07 12:45:37;;;;;;;1.30;0.80;;;;;;;;;;8353219;28;20122;-61
2022/06/07 12:49:42;;;;;;;0.98;0.70;;;;;;;;;;8355463;28;20770;-62
2022/06/07 12:53:46;;;;;;;0.75;0.60;;;;;;;;;;8357022;28;20044;-61
2022/06/07 12:57:58;;;;;;;1.73;0.70;;;;;;;;;;8353171;28;20531;-61
2022/06/07 13:01:58;;;;;;;1.13;0.75;;;;;;;;;;8355252;28;20032;-61
2022/06/07 13:06:01;;;;;;;2.00;0.70;;;;;;;;;;8354366;28;20478;-62
2022/06/07 13:10:04;;;;;;;1.42;0.60;;;;;;;;;;8351790;28;20083;-62
2022/06/07 13:14:05;;;;;;;2.20;0.70;;;;;;;;;;8352371;28;20020;-61
2022/06/07 13:18:26;;;;;;;1.13;0.80;;;;;;;;;;8351088;28;20039;-61
2022/06/07 13:22:27;;;;;;;0.85;0.63;;;;;;;;;;8352117;28;20035;-62
2022/06/07 13:26:30;;;;;;;1.25;0.70;;;;;;;;;;8353185;28;20044;-61
2022/06/07 13:30:33;;;;;;;4.53;0.90;;;;;;;;;;8352805;28;20430;-61
2022/06/07 13:34:35;;;;;;;1.83;0.60;;;;;;;;;;8353072;28;20398;-61
2022/06/07 13:38:41;;;;;;;1.08;0.68;;;;;;;;;;8351805;28;20031;-61
2022/06/07 13:42:42;;;;;;;1.13;0.75;;;;;;;;;;8351403;28;20776;-61
2022/06/07 13:46:55;;;;;;;1.23;0.70;;;;;;;;;;8349760;28;20532;-61
2022/06/07 13:55:18;;;;;;;1.65;0.80;;;;;;;;;;8350803;28;20070;-61
2022/06/07 13:59:18;;;;;;;1.52;0.70;;;;;;;;;;8351739;28;20016;-61
2022/06/07 14:03:21;;;;;;;1.43;0.80;;;;;;;;;;8352127;28;20044;-62
2022/06/07 14:07:21;;;;;;;;;;;;;;;;;;8351968;28;20120;-61
2022/06/07 14:11:21;;;;;;;4.22;0.85;;;;;;;;;;8348369;28;20387;-61
2022/06/07 14:15:22;;;;;;;0.60;0.60;;;;;;;;;;8349117;28;22029;-61
2022/06/07 14:19:29;;;;;;;1.17;0.80;;;;;;;;;;8351883;28;20739;-61
2022/06/07 14:23:29;;;;;;;5.93;0.90;;;;;;;;;;8349292;28;20509;-61
2022/06/07 14:27:31;;;;;;;0.75;0.68;;;;;;;;;;8349420;28;20027;-61
2022/06/07 14:31:33;;;;;;;1.10;0.80;;;;;;;;;;8349301;28;20040;-60
2022/06/07 14:35:34;;;;;;;;;;;;;;;;;;8350963;28;20893;-61
2022/06/07 14:39:34;;;;;;;2.33;0.80;;;;;;;;;;8349610;28;19912;-61
2022/06/07 14:43:34;;;;;;;1.17;0.77;;;;;;;;;;8354849;28;20021;-61
2022/06/07 14:47:35;;;;;;;3.38;0.60;;;;;;;;;;8357547;28;20036;-63
2022/06/07 14:51:37;;;;;;;2.30;0.73;;;;;;;;;;8357454;28;20046;-62
2022/06/07 14:55:37;;;;;;;1.23;0.70;;;;;;;;;;8358343;28;20346;-61
2022/06/07 14:59:37;;;;;;;0.70;0.60;;;;;;;;;;8358073;28;20025;-61
2022/06/07 15:03:37;;;;;;;0.88;0.70;;;;;;;;;;8357499;28;20039;-62
2022/06/07 15:07:58;;;;;;;1.10;0.70;;;;;;;;;;8355590;28;20120;-61
2022/06/07 15:11:58;;;;;;;2.15;0.70;;;;;;;;;;8359322;28;20021;-62
2022/06/07 15:16:01;;;;;;;2.43;0.70;;;;;;;;;;8353187;28;20044;-61
2022/06/07 15:20:03;;;;;;;4.13;0.70;;;;;;;;;;8356844;28;20447;-61
2022/06/07 15:24:04;;;;;;;0.63;0.43;;;;;;;;;;8354647;28;20815;-61
2022/06/07 15:28:04;;;;;;;2.78;0.50;;;;;;;;;;8353911;28;20437;-63
2022/06/07 15:32:12;;;;;;;0.85;0.57;;;;;;;;;;8353945;28;20029;-61
2022/06/07 15:36:13;;;;;;;0.38;0.30;;;;;;;;;;8354664;28;20029;-61
2022/06/07 15:40:14;;;;;;;1.65;0.45;;;;;;;;;;8355699;28;20025;-61
2022/06/07 15:44:14;;;;;;;0.85;0.40;;;;;;;;;;8354647;28;20097;-61
2022/06/07 15:48:19;;;;;;;0.80;0.40;;;;;;;;;;8352613;28;20041;-61
2022/06/07 15:52:20;;;;;;;1.27;0.50;;;;;;;;;;8356678;28;20197;-61
2022/06/07 15:56:20;;;;;;;0.40;0.40;;;;;;;;;;8354429;28;20737;-62
2022/06/07 16:00:20;;;;;;;0.30;0.30;;;;;;;;;;8351408;28;20028;-62
2022/06/07 16:04:22;;;;;;;0.55;0.40;;;;;;;;;;8355622;28;20024;-61
2022/06/07 16:08:22;;;;;;;0.40;0.40;;;;;;;;;;8351928;28;20028;-61
2022/06/07 16:12:23;;;;;;;2.40;0.60;;;;;;;;;;8353815;28;20028;-61
2022/06/07 16:16:27;;;;;;;4.40;0.40;;;;;;;;;;8354381;28;20048;-61
2022/06/07 16:20:28;;;;;;;0.98;0.50;;;;;;;;;;8354317;28;20313;-61
2022/06/07 16:24:28;;;;;;;2.92;0.57;;;;;;;;;;8353867;28;20029;-61
2022/06/07 16:37:06;;;;;;;3.35;0.60;;;;;;;;;;8354868;28;20040;-61
2022/06/07 16:41:07;;;;;;;0.87;0.60;;;;;;;;;;8354761;28;20029;-61
2022/06/07 16:45:07;;;;;;;1.70;0.60;;;;;;;;;;8351604;28;20978;-61
2022/06/07 16:49:10;;;;;;;2.08;0.50;;;;;;;;;;8353761;28;20021;-61
2022/06/07 16:53:10;;;;;;;0.80;0.60;;;;;;;;;;8353243;28;20028;-61
2022/06/07 16:57:14;;;;;;;4.07;0.60;;;;;;;;;;8352726;28;20102;-61
2022/06/07 17:01:15;;;;;;;1.15;0.65;;;;;;;;;;8353451;28;20041;-62
2022/06/07 17:05:16;;;;;;;3.08;0.70;;;;;;;;;;8352391;28;20029;-61
2022/06/07 17:09:17;;;;;;;0.77;0.70;;;;;;;;;;8355096;28;20031;-61
2022/06/07 17:13:17;;;;;;;4.72;1.10;;;;;;;;;;8350509;28;20028;-61
2022/06/07 17:17:17;;;;;;;1.80;1.00;;;;;;;;;;8356639;28;20093;-60
2022/06/07 17:21:17;;;;;;;2.50;1.00;;;;;;;;;;8354364;28;20278;-62
2022/06/07 17:25:18;;;;;;;2.87;1.00;;;;;;;;;;8354036;28;20611;-61
2022/06/07 17:29:18;;;;;;;1.30;0.97;;;;;;;;;;8352862;28;20465;-60
2022/06/07 17:33:18;;;;;;;1.80;1.07;;;;;;;;;;8354796;28;20032;-60
2022/06/07 17:37:18;;;;;;;2.80;1.00;;;;;;;;;;8353426;28;20115;-61
2022/06/07 17:41:20;;;;;;;1.25;0.90;;;;;;;;;;8354983;28;20025;-61
2022/06/07 17:45:20;;;;;;;2.78;0.95;;;;;;;;;;8353517;28;20031;-61
2022/06/07 17:49:20;;;;;;;1.65;1.00;;;;;;;;;;8352441;28;20024;-61
2022/06/07 17:53:21;;;;;;;1.67;0.90;;;;;;;;;;8351884;28;20021;-61
2022/06/07 17:57:21;;;;;;;3.50;1.02;;;;;;;;;;8355085;28;20032;-61
2022/06/07 18:01:22;;;;;;;2.95;0.82;;;;;;;;;;8353466;28;20040;-61
2022/06/07 18:05:25;;;;;;;1.30;0.90;;;;;;;;;;8354826;28;20575;-61
2022/06/07 18:09:26;;;;;;;4.85;1.00;;;;;;;;;;8353729;28;20017;-61
2022/06/07 18:13:26;;;;;;;3.17;1.10;;;;;;;;;;8354781;28;20025;-61
2022/06/07 18:17:26;;;;;;;2.17;1.20;;;;;;;;;;8354058;28;20136;-61
2022/06/07 18:21:30;;;;;;;1.52;1.00;;;;;;;;;;8359760;28;20055;-60
2022/06/07 18:25:32;;;;;;;0.82;0.82;;;;;;;;;;8358053;28;20028;-60
2022/06/07 18:29:33;;;;;;;1.07;0.70;;;;;;;;;;8358254;28;20059;-60
2022/06/07 18:33:33;;;;;;;2.22;1.02;;;;;;;;;;8356815;28;20048;-61
2022/06/07 18:37:34;;;;;;;1.08;0.88;;;;;;;;;;8356599;28;20020;-61
2022/06/07 18:41:34;;;;;;;3.33;0.88;;;;;;;;;;8358238;28;20821;-60
2022/06/07 18:45:36;;;;;;;4.13;0.95;;;;;;;;;;8355403;28;20155;-60
2022/06/07 18:49:37;;;;;;;1.15;0.95;;;;;;;;;;8357899;28;20921;-60
2022/06/07 18:53:38;;;;;;;1.10;0.80;;;;;;;;;;8357551;28;20693;-60
2022/06/07 18:57:38;;;;;;;2.33;0.90;;;;;;;;;;8356599;28;20025;-60
2022/06/07 19:01:40;;;;;;;0.80;0.80;;;;;;;;;;8355213;28;20127;-61
2022/06/07 19:05:40;;;;;;;1.48;0.80;;;;;;;;;;8354366;28;20168;-62
2022/06/07 19:09:46;;;;;;;1.83;0.98;;;;;;;;;;8356173;28;20871;-62
2022/06/07 19:13:47;;;;;;;2.72;0.90;;;;;;;;;;8356425;28;20024;-61
2022/06/07 19:17:48;;;;;;;1.75;0.80;;;;;;;;;;8355458;28;20048;-61
2022/06/07 19:21:49;;;;;;;3.67;0.90;;;;;;;;;;8357594;28;20021;-61
2022/06/07 19:25:49;;;;;;;1.65;1.00;;;;;;;;;;8356230;28;20037;-61
2022/06/07 19:29:49;;;;;;;1.90;0.93;;;;;;;;;;8356335;28;20028;-61
2022/06/07 19:33:50;;;;;;;1.52;0.90;;;;;;;;;;8355781;28;20036;-61
2022/06/07 19:37:50;;;;;;;1.38;1.02;;;;;;;;;;8355293;28;20077;-61
2022/06/07 19:41:51;;;;;;;1.70;1.00;;;;;;;;;;8353211;28;20899;-61
2022/06/07 19:45:51;;;;;;;1.30;0.90;;;;;;;;;;8354745;28;20062;-62
2022/06/07 19:49:51;;;;;;;1.03;0.90;;;;;;;;;;8352977;28;20037;-61
2022/06/07 19:53:55;;;;;;;1.47;1.00;;;;;;;;;;8354873;28;20039;-61
2022/06/07 19:57:56;;;;;;;2.25;0.90;;;;;;;;;;8352110;28;20317;-61
2022/06/07 20:01:57;;;;;;;3.92;1.00;;;;;;;;;;8350288;28;20032;-61
2022/06/07 20:05:57;;;;;;;2.45;1.00;;;;;;;;;;8352819;28;20496;-61
2022/06/07 20:09:57;;;;;;;1.27;0.68;;;;;;;;;;8351075;28;20024;-61
2022/06/07 20:13:57;;;;;;;1.13;0.90;;;;;;;;;;8353837;28;20028;-61
2022/06/07 20:17:58;;;;;;;1.95;1.02;;;;;;;;;;8351865;28;20044;-62
2022/06/07 20:21:58;;;;;;;2.35;1.00;;;;;;;;;;8353182;28;20032;-61
2022/06/07 20:25:59;;;;;;;2.35;1.05;;;;;;;;;;8350396;28;20021;-61
2022/06/07 20:29:59;;;;;;;1.67;1.20;;;;;;;;;;8351502;28;20029;-61
2022/06/07 20:33:59;;;;;;;3.10;0.90;;;;;;;;;;8350914;28;20037;-61
2022/06/07 20:38:00;;;;;;;2.00;1.00;;;;;;;;;;8352884;28;20036;-62
2022/06/07 20:42:01;;;;;;;2.10;0.93;;;;;;;;;;8353044;28;20353;-61
2022/06/07 20:46:01;;;;;;;3.67;1.15;;;;;;;;;;8352918;28;20037;-61
2022/06/07 20:50:03;;;;;;;2.67;1.05;;;;;;;;;;8353762;28;20044;-63
2022/06/07 20:54:03;;;;;;;1.42;0.80;;;;;;;;;;8352179;28;20035;-61
2022/06/07 20:58:04;;;;;;;3.20;1.00;;;;;;;;;;8354570;28;20021;-61
2022/06/07 21:02:05;;;;;;;1.13;0.80;;;;;;;;;;8352668;28;20090;-61
2022/06/07 21:06:05;;;;;;;2.63;1.00;;;;;;;;;;8356237;28;20032;-61
2022/06/07 21:10:07;;;;;;;2.43;1.00;;;;;;;;;;8350754;28;20020;-61
2022/06/07 21:14:08;;;;;;;3.00;1.02;;;;;;;;;;8351626;28;20263;-61
2022/06/07 21:18:08;;;;;;;1.63;1.05;;;;;;;;;;8352379;28;20055;-60
2022/06/07 21:22:08;;;;;;;3.70;1.25;;;;;;;;;;8352284;28;20032;-61
2022/06/07 21:26:08;;;;;;;1.63;0.93;;;;;;;;;;8355690;28;21145;-60
2022/06/07 21:30:17;;;;;;;2.47;1.05;;;;;;;;;;8352782;28;20163;-61
2022/06/07 21:34:17;;;;;;;1.50;0.90;;;;;;;;;;8352932;28;20024;-61
2022/06/07 21:38:18;;;;;;;4.82;1.70;;;;;;;;;;8350946;28;20071;-61
2022/06/07 21:42:20;;;;;;;1.15;0.93;;;;;;;;;;8352228;28;20033;-61
2022/06/07 21:46:20;;;;;;;2.65;1.02;;;;;;;;;;8353681;28;20044;-61
2022/06/07 21:50:21;;;;;;;1.00;0.90;;;;;;;;;;8353663;28;20115;-61
2022/06/07 21:54:22;;;;;;;4.60;1.23;;;;;;;;;;8352608;28;20595;-61
2022/06/07 21:58:23;;;;;;;1.95;1.05;;;;;;;;;;8353351;28;20024;-61
2022/06/07 22:02:23;;;;;;;3.08;1.02;;;;;;;;;;8353643;28;20040;-61
2022/06/07 22:06:23;;;;;;;2.42;1.05;;;;;;;;;;8352459;28;20032;-61
2022/06/07 22:10:24;;;;;;;1.73;1.10;;;;;;;;;;8355970;28;20779;-61
2022/06/07 22:14:24;;;;;;;1.95;1.00;;;;;;;;;;8352422;28;20029;-61
2022/06/07 22:18:25;;;;;;;3.97;1.10;;;;;;;;;;8354955;28;20966;-61
2022/06/07 22:22:25;;;;;;;2.00;1.20;;;;;;;;;;8354351;28;20043;-61
2022/06/07 22:26:26;;;;;;;3.75;1.17;;;;;;;;;;8355341;28;20051;-61
2022/06/07 22:30:26;;;;;;;1.42;1.05;;;;;;;;;;8354759;28;20403;-61
2022/06/07 22:34:27;;;;;;;2.15;1.00;;;;;;;;;;8354300;28;21053;-60
2022/06/07 22:38:27;;;;;;;1.55;0.90;;;;;;;;;;8352404;28;20751;-61
2022/06/07 22:42:27;;;;;;;2.60;1.10;;;;;;;;;;8354070;28;20047;-60
2022/06/07 22:46:27;;;;;;;1.40;1.00;;;;;;;;;;8350207;28;20037;-61
2022/06/07 22:50:30;;;;;;;2.10;1.10;;;;;;;;;;8351673;28;20374;-61
2022/06/07 22:54:35;;;;;;;3.90;1.02;;;;;;;;;;8351867;28;20504;-61
2022/06/07 22:58:46;;;;;;;2.95;1.10;;;;;;;;;;8351166;28;20272;-61
2022/06/07 23:02:49;;;;;;;1.83;0.90;;;;;;;;;;8353079;28;20036;-61
2022/06/07 23:06:52;;;;;;;1.85;1.20;;;;;;;;;;8353503;28;20056;-60
2022/06/07 23:10:52;;;;;;;3.13;1.00;;;;;;;;;;8355299;28;20032;-61
2022/06/07 23:19:12;;;;;;;1.38;1.00;;;;;;;;;;8353931;28;20821;-60
2022/06/07 23:23:12;;;;;;;1.35;0.93;;;;;;;;;;8347637;28;20427;-61
2022/06/07 23:27:13;;;;;;;2.75;1.00;;;;;;;;;;8354901;28;20047;-60
2022/06/07 23:31:13;;;;;;;3.90;1.45;;;;;;;;;;8352382;28;20040;-60
2022/06/07 23:35:15;;;;;;;2.05;1.00;;;;;;;;;;8355328;28;20047;-61
2022/06/07 23:39:15;;;;;;;3.50;1.13;;;;;;;;;;8352148;28;20118;-61
2022/06/07 23:43:15;;;;;;;1.20;1.05;;;;;;;;;;8353301;28;20044;-61
2022/06/07 23:47:20;;;;;;;4.15;0.98;;;;;;;;;;8355142;28;20297;-61
2022/06/07 23:51:21;;;;;;;2.17;1.00;;;;;;;;;;8356751;28;20029;-61
2022/06/07 23:55:21;;;;;;;2.08;0.90;;;;;;;;;;8358620;28;20028;-60
2022/06/07 23:59:24;;;;;;;3.15;1.23;;;;;;;;;;8357773;28;20094;-61
